sensor_id;sensor_type;location;lat;lon;timestamp;pressure;altitude;pressure_sealevel;temperature;humidity
68077;BME280;54866;53.458;14.540;2022-12-20T00:01:48;100846.36;;;2.25;100.00
68077;BME280;54866;53.458;14.540;2022-12-20T00:04:18;100845.70;;;2.24;100.00
68077;BME280;54866;53.458;14.540;2022-12-20T00:06:48;100845.30;;;2.25;100.00
68077;BME280;54866;53.458;14.540;2022-12-20T00:09:17;100846.69;;;2.25;100.00
68077;BME280;54866;53.458;14.540;2022-12-20T00:11:47;100845.94;;;2.27;100.00
68077;BME280;54866;53.458;14.540;2022-12-20T00:14:17;100851.43;;;2.28;100.00
68077;BME280;54866;53.458;14.540;2022-12-20T00:16:47;100859.71;;;2.30;100.00
68077;BME280;54866;53.458;14.540;2022-12-20T00:19:16;100861.77;;;2.31;100.00
68077;BME280;54866;53.458;14.540;2022-12-20T00:21:46;100851.96;;;2.32;100.00
68077;BME280;54866;53.458;14.540;2022-12-20T00:24:16;100843.28;;;2.32;100.00
68077;BME280;54866;53.458;14.540;2022-12-20T00:26:45;100847.80;;;2.32;100.00
68077;BME280;54866;53.458;14.540;2022-12-20T00:29:15;100850.21;;;2.32;100.00
68077;BME280;54866;53.458;14.540;2022-12-20T00:31:45;100843.27;;;2.33;100.00
68077;BME280;54866;53.458;14.540;2022-12-20T00:34:14;100845.69;;;2.33;100.00
68077;BME280;54866;53.458;14.540;2022-12-20T00:36:44;100838.37;;;2.29;100.00
68077;BME280;54866;53.458;14.540;2022-12-20T00:39:14;100836.04;;;2.30;100.00
68077;BME280;54866;53.458;14.540;2022-12-20T00:41:44;100824.42;;;2.30;100.00
68077;BME280;54866;53.458;14.540;2022-12-20T00:44:14;100819.64;;;2.28;100.00
68077;BME280;54866;53.458;14.540;2022-12-20T00:46:43;100830.25;;;2.28;100.00
68077;BME280;54866;53.458;14.540;2022-12-20T00:49:13;100829.56;;;2.28;100.00
68077;BME280;54866;53.458;14.540;2022-12-20T00:51:43;100839.13;;;2.28;100.00
68077;BME280;54866;53.458;14.540;2022-12-20T00:54:13;100837.61;;;2.27;100.00
68077;BME280;54866;53.458;14.540;2022-12-20T00:56:43;100841.09;;;2.26;100.00
68077;BME280;54866;53.458;14.540;2022-12-20T00:59:12;100843.38;;;2.26;100.00
68077;BME280;54866;53.458;14.540;2022-12-20T01:01:42;100846.84;;;2.26;100.00
68077;BME280;54866;53.458;14.540;2022-12-20T01:04:12;100843.04;;;2.25;100.00
68077;BME280;54866;53.458;14.540;2022-12-20T01:06:42;100843.98;;;2.28;100.00
68077;BME280;54866;53.458;14.540;2022-12-20T01:09:12;100839.13;;;2.28;100.00
68077;BME280;54866;53.458;14.540;2022-12-20T01:11:42;100842.44;;;2.28;100.00
68077;BME280;54866;53.458;14.540;2022-12-20T01:14:14;100834.77;;;2.28;100.00
68077;BME280;54866;53.458;14.540;2022-12-20T01:16:46;100837.23;;;2.31;100.00
68077;BME280;54866;53.458;14.540;2022-12-20T01:19:17;100837.95;;;2.31;100.00
68077;BME280;54866;53.458;14.540;2022-12-20T01:21:47;100838.96;;;2.31;100.00
68077;BME280;54866;53.458;14.540;2022-12-20T01:24:17;100834.98;;;2.31;100.00
68077;BME280;54866;53.458;14.540;2022-12-20T01:26:48;100829.23;;;2.31;100.00
68077;BME280;54866;53.458;14.540;2022-12-20T01:29:18;100829.05;;;2.31;100.00
68077;BME280;54866;53.458;14.540;2022-12-20T01:31:48;100830.80;;;2.31;100.00
68077;BME280;54866;53.458;14.540;2022-12-20T01:34:17;100828.42;;;2.30;100.00
68077;BME280;54866;53.458;14.540;2022-12-20T01:36:47;100822.89;;;2.29;100.00
68077;BME280;54866;53.458;14.540;2022-12-20T01:39:17;100827.79;;;2.28;100.00
68077;BME280;54866;53.458;14.540;2022-12-20T01:41:47;100817.56;;;2.28;100.00
68077;BME280;54866;53.458;14.540;2022-12-20T01:47:34;100809.71;;;2.24;100.00
68077;BME280;54866;53.458;14.540;2022-12-20T01:50:08;100810.15;;;2.26;100.00
68077;BME280;54866;53.458;14.540;2022-12-20T01:52:42;100803.38;;;2.26;100.00
68077;BME280;54866;53.458;14.540;2022-12-20T01:55:16;100804.90;;;2.27;100.00
68077;BME280;54866;53.458;14.540;2022-12-20T01:57:49;100808.30;;;2.29;100.00
68077;BME280;54866;53.458;14.540;2022-12-20T02:00:22;100803.39;;;2.30;100.00
68077;BME280;54866;53.458;14.540;2022-12-20T02:02:51;100801.98;;;2.31;100.00
68077;BME280;54866;53.458;14.540;2022-12-20T02:05:23;100797.27;;;2.31;100.00
68077;BME280;54866;53.458;14.540;2022-12-20T02:07:54;100797.28;;;2.30;100.00
68077;BME280;54866;53.458;14.540;2022-12-20T02:10:32;100801.48;;;2.30;100.00
68077;BME280;54866;53.458;14.540;2022-12-20T02:13:11;100800.55;;;2.31;100.00
68077;BME280;54866;53.458;14.540;2022-12-20T02:15:50;100797.68;;;2.29;100.00
68077;BME280;54866;53.458;14.540;2022-12-20T02:18:24;100792.71;;;2.28;100.00
68077;BME280;54866;53.458;14.540;2022-12-20T02:21:23;100790.66;;;2.27;100.00
68077;BME280;54866;53.458;14.540;2022-12-20T02:24:29;100792.66;;;2.24;100.00
68077;BME280;54866;53.458;14.540;2022-12-20T02:27:36;100782.15;;;2.22;100.00
68077;BME280;54866;53.458;14.540;2022-12-20T02:30:13;100778.91;;;2.21;100.00
68077;BME280;54866;53.458;14.540;2022-12-20T02:32:43;100779.67;;;2.19;100.00
68077;BME280;54866;53.458;14.540;2022-12-20T02:35:20;100786.45;;;2.19;100.00
68077;BME280;54866;53.458;14.540;2022-12-20T02:37:53;100797.19;;;2.20;100.00
68077;BME280;54866;53.458;14.540;2022-12-20T02:40:27;100796.80;;;2.21;100.00
68077;BME280;54866;53.458;14.540;2022-12-20T02:42:59;100797.37;;;2.20;100.00
68077;BME280;54866;53.458;14.540;2022-12-20T02:45:33;100792.73;;;2.19;100.00
68077;BME280;54866;53.458;14.540;2022-12-20T02:48:06;100796.19;;;2.19;100.00
68077;BME280;54866;53.458;14.540;2022-12-20T02:50:38;100793.06;;;2.19;100.00
68077;BME280;54866;53.458;14.540;2022-12-20T02:53:12;100788.77;;;2.18;100.00
68077;BME280;54866;53.458;14.540;2022-12-20T02:55:46;100788.77;;;2.18;100.00
68077;BME280;54866;53.458;14.540;2022-12-20T02:58:20;100785.13;;;2.18;100.00
68077;BME280;54866;53.458;14.540;2022-12-20T03:00:55;100784.62;;;2.17;100.00
68077;BME280;54866;53.458;14.540;2022-12-20T03:03:31;100789.13;;;2.18;100.00
68077;BME280;54866;53.458;14.540;2022-12-20T03:06:02;100786.10;;;2.19;100.00
68077;BME280;54866;53.458;14.540;2022-12-20T03:08:32;100786.63;;;2.19;100.00
68077;BME280;54866;53.458;14.540;2022-12-20T03:11:01;100785.91;;;2.20;100.00
68077;BME280;54866;53.458;14.540;2022-12-20T03:13:31;100788.13;;;2.21;100.00
68077;BME280;54866;53.458;14.540;2022-12-20T03:16:01;100787.70;;;2.22;100.00
68077;BME280;54866;53.458;14.540;2022-12-20T03:18:31;100785.25;;;2.23;100.00
68077;BME280;54866;53.458;14.540;2022-12-20T03:21:00;100788.56;;;2.23;100.00
68077;BME280;54866;53.458;14.540;2022-12-20T03:23:30;100782.30;;;2.23;100.00
68077;BME280;54866;53.458;14.540;2022-12-20T03:26:00;100788.40;;;2.22;100.00
68077;BME280;54866;53.458;14.540;2022-12-20T03:28:30;100782.16;;;2.22;100.00
68077;BME280;54866;53.458;14.540;2022-12-20T03:30:59;100789.43;;;2.22;100.00
68077;BME280;54866;53.458;14.540;2022-12-20T03:33:29;100789.70;;;2.24;100.00
68077;BME280;54866;53.458;14.540;2022-12-20T03:35:59;100786.73;;;2.25;100.00
68077;BME280;54866;53.458;14.540;2022-12-20T03:38:28;100777.98;;;2.27;100.00
68077;BME280;54866;53.458;14.540;2022-12-20T03:40:58;100775.17;;;2.27;100.00
68077;BME280;54866;53.458;14.540;2022-12-20T03:43:28;100773.59;;;2.28;100.00
68077;BME280;54866;53.458;14.540;2022-12-20T03:45:58;100775.23;;;2.30;100.00
68077;BME280;54866;53.458;14.540;2022-12-20T03:48:27;100772.61;;;2.30;100.00
68077;BME280;54866;53.458;14.540;2022-12-20T03:50:57;100768.18;;;2.32;100.00
68077;BME280;54866;53.458;14.540;2022-12-20T03:53:27;100772.69;;;2.32;100.00
68077;BME280;54866;53.458;14.540;2022-12-20T03:55:57;100769.36;;;2.33;100.00
68077;BME280;54866;53.458;14.540;2022-12-20T03:58:27;100771.60;;;2.33;100.00
68077;BME280;54866;53.458;14.540;2022-12-20T04:00:58;100771.81;;;2.32;100.00
68077;BME280;54866;53.458;14.540;2022-12-20T04:03:27;100761.77;;;2.32;100.00
68077;BME280;54866;53.458;14.540;2022-12-20T04:05:57;100764.42;;;2.31;100.00
68077;BME280;54866;53.458;14.540;2022-12-20T04:08:27;100758.09;;;2.28;100.00
68077;BME280;54866;53.458;14.540;2022-12-20T04:10:57;100757.66;;;2.26;100.00
68077;BME280;54866;53.458;14.540;2022-12-20T04:13:46;100754.75;;;2.24;100.00
68077;BME280;54866;53.458;14.540;2022-12-20T04:16:17;100761.76;;;2.23;100.00
68077;BME280;54866;53.458;14.540;2022-12-20T04:18:47;100761.77;;;2.23;100.00
68077;BME280;54866;53.458;14.540;2022-12-20T04:21:22;100761.05;;;2.24;100.00
68077;BME280;54866;53.458;14.540;2022-12-20T04:23:52;100765.88;;;2.25;100.00
68077;BME280;54866;53.458;14.540;2022-12-20T04:26:22;100772.63;;;2.26;100.00
68077;BME280;54866;53.458;14.540;2022-12-20T04:28:54;100773.05;;;2.28;100.00
68077;BME280;54866;53.458;14.540;2022-12-20T04:31:23;100774.16;;;2.30;100.00
68077;BME280;54866;53.458;14.540;2022-12-20T04:33:53;100770.82;;;2.31;100.00
68077;BME280;54866;53.458;14.540;2022-12-20T04:36:24;100770.80;;;2.32;100.00
68077;BME280;54866;53.458;14.540;2022-12-20T04:38:53;100771.98;;;2.32;100.00
68077;BME280;54866;53.458;14.540;2022-12-20T04:41:23;100771.73;;;2.34;100.00
68077;BME280;54866;53.458;14.540;2022-12-20T04:43:56;100774.45;;;2.36;100.00
68077;BME280;54866;53.458;14.540;2022-12-20T04:46:26;100778.73;;;2.37;100.00
68077;BME280;54866;53.458;14.540;2022-12-20T04:48:56;100774.34;;;2.38;100.00
68077;BME280;54866;53.458;14.540;2022-12-20T04:51:26;100771.51;;;2.39;100.00
68077;BME280;54866;53.458;14.540;2022-12-20T04:53:56;100771.11;;;2.40;100.00
68077;BME280;54866;53.458;14.540;2022-12-20T04:56:27;100763.77;;;2.41;100.00
68077;BME280;54866;53.458;14.540;2022-12-20T04:58:58;100765.02;;;2.40;100.00
68077;BME280;54866;53.458;14.540;2022-12-20T05:01:29;100763.48;;;2.40;100.00
68077;BME280;54866;53.458;14.540;2022-12-20T05:03:59;100758.60;;;2.40;100.00
68077;BME280;54866;53.458;14.540;2022-12-20T05:06:29;100748.83;;;2.41;100.00
68077;BME280;54866;53.458;14.540;2022-12-20T05:08:59;100744.94;;;2.38;100.00
68077;BME280;54866;53.458;14.540;2022-12-20T05:11:28;100746.05;;;2.40;100.00
68077;BME280;54866;53.458;14.540;2022-12-20T05:13:58;100745.52;;;2.41;100.00
68077;BME280;54866;53.458;14.540;2022-12-20T05:16:28;100753.85;;;2.41;100.00
68077;BME280;54866;53.458;14.540;2022-12-20T05:18:58;100757.81;;;2.42;100.00
68077;BME280;54866;53.458;14.540;2022-12-20T05:21:28;100757.45;;;2.43;100.00
68077;BME280;54866;53.458;14.540;2022-12-20T05:24:15;100756.00;;;2.45;100.00
68077;BME280;54866;53.458;14.540;2022-12-20T05:27:02;100750.77;;;2.45;100.00
68077;BME280;54866;53.458;14.540;2022-12-20T05:29:32;100751.36;;;2.47;100.00
68077;BME280;54866;53.458;14.540;2022-12-20T05:32:02;100750.46;;;2.48;100.00
68077;BME280;54866;53.458;14.540;2022-12-20T05:34:31;100750.06;;;2.49;100.00
68077;BME280;54866;53.458;14.540;2022-12-20T05:37:01;100747.54;;;2.51;100.00
68077;BME280;54866;53.458;14.540;2022-12-20T05:39:31;100742.50;;;2.51;100.00
68077;BME280;54866;53.458;14.540;2022-12-20T05:42:02;100750.67;;;2.55;100.00
68077;BME280;54866;53.458;14.540;2022-12-20T05:44:31;100753.04;;;2.56;100.00
68077;BME280;54866;53.458;14.540;2022-12-20T05:47:01;100746.40;;;2.57;100.00
68077;BME280;54866;53.458;14.540;2022-12-20T05:49:31;100741.84;;;2.57;100.00
68077;BME280;54866;53.458;14.540;2022-12-20T05:52:01;100747.34;;;2.59;100.00
68077;BME280;54866;53.458;14.540;2022-12-20T05:54:31;100742.41;;;2.61;100.00
68077;BME280;54866;53.458;14.540;2022-12-20T05:57:00;100746.23;;;2.61;100.00
68077;BME280;54866;53.458;14.540;2022-12-20T05:59:30;100749.17;;;2.61;100.00
68077;BME280;54866;53.458;14.540;2022-12-20T06:02:00;100744.27;;;2.62;100.00
68077;BME280;54866;53.458;14.540;2022-12-20T06:04:31;100747.55;;;2.63;100.00
68077;BME280;54866;53.458;14.540;2022-12-20T06:07:01;100748.23;;;2.63;100.00
68077;BME280;54866;53.458;14.540;2022-12-20T06:09:32;100747.69;;;2.63;100.00
68077;BME280;54866;53.458;14.540;2022-12-20T06:12:02;100756.55;;;2.64;100.00
68077;BME280;54866;53.458;14.540;2022-12-20T06:14:32;100754.26;;;2.64;100.00
68077;BME280;54866;53.458;14.540;2022-12-20T06:17:02;100758.23;;;2.65;100.00
68077;BME280;54866;53.458;14.540;2022-12-20T06:19:32;100765.10;;;2.66;100.00
68077;BME280;54866;53.458;14.540;2022-12-20T06:22:01;100757.45;;;2.66;100.00
68077;BME280;54866;53.458;14.540;2022-12-20T06:24:31;100748.20;;;2.67;100.00
68077;BME280;54866;53.458;14.540;2022-12-20T06:27:01;100753.61;;;2.67;100.00
68077;BME280;54866;53.458;14.540;2022-12-20T06:29:31;100765.20;;;2.68;100.00
68077;BME280;54866;53.458;14.540;2022-12-20T06:32:01;100764.45;;;2.69;100.00
68077;BME280;54866;53.458;14.540;2022-12-20T06:34:32;100760.04;;;2.71;100.00
68077;BME280;54866;53.458;14.540;2022-12-20T06:37:02;100759.89;;;2.74;100.00
68077;BME280;54866;53.458;14.540;2022-12-20T06:39:32;100773.94;;;2.75;100.00
68077;BME280;54866;53.458;14.540;2022-12-20T06:42:02;100768.79;;;2.78;100.00
68077;BME280;54866;53.458;14.540;2022-12-20T06:44:32;100763.16;;;2.79;100.00
68077;BME280;54866;53.458;14.540;2022-12-20T06:47:01;100764.66;;;2.81;100.00
68077;BME280;54866;53.458;14.540;2022-12-20T06:49:31;100762.30;;;2.83;100.00
68077;BME280;54866;53.458;14.540;2022-12-20T06:52:01;100774.27;;;2.84;100.00
68077;BME280;54866;53.458;14.540;2022-12-20T06:54:30;100777.55;;;2.84;100.00
68077;BME280;54866;53.458;14.540;2022-12-20T06:57:00;100768.09;;;2.86;100.00
68077;BME280;54866;53.458;14.540;2022-12-20T06:59:30;100766.48;;;2.86;100.00
68077;BME280;54866;53.458;14.540;2022-12-20T07:02:00;100763.98;;;2.88;100.00
68077;BME280;54866;53.458;14.540;2022-12-20T07:04:29;100767.05;;;2.89;100.00
68077;BME280;54866;53.458;14.540;2022-12-20T07:06:59;100762.98;;;2.90;100.00
68077;BME280;54866;53.458;14.540;2022-12-20T07:09:29;100761.66;;;2.92;100.00
68077;BME280;54866;53.458;14.540;2022-12-20T07:11:59;100761.42;;;2.94;100.00
68077;BME280;54866;53.458;14.540;2022-12-20T07:14:29;100758.75;;;2.95;100.00
68077;BME280;54866;53.458;14.540;2022-12-20T07:16:58;100758.87;;;2.97;100.00
68077;BME280;54866;53.458;14.540;2022-12-20T07:19:28;100764.02;;;2.98;100.00
68077;BME280;54866;53.458;14.540;2022-12-20T07:21:58;100769.30;;;3.01;100.00
68077;BME280;54866;53.458;14.540;2022-12-20T07:24:28;100759.71;;;3.01;100.00
68077;BME280;54866;53.458;14.540;2022-12-20T07:26:59;100760.54;;;3.06;100.00
68077;BME280;54866;53.458;14.540;2022-12-20T07:29:29;100765.52;;;3.07;100.00
68077;BME280;54866;53.458;14.540;2022-12-20T07:31:59;100766.81;;;3.09;100.00
68077;BME280;54866;53.458;14.540;2022-12-20T07:34:28;100763.24;;;3.11;100.00
68077;BME280;54866;53.458;14.540;2022-12-20T07:36:58;100761.89;;;3.14;100.00
68077;BME280;54866;53.458;14.540;2022-12-20T07:39:28;100772.52;;;3.18;100.00
68077;BME280;54866;53.458;14.540;2022-12-20T07:41:58;100773.25;;;3.21;100.00
68077;BME280;54866;53.458;14.540;2022-12-20T07:44:28;100776.33;;;3.22;100.00
68077;BME280;54866;53.458;14.540;2022-12-20T07:46:57;100770.95;;;3.25;100.00
68077;BME280;54866;53.458;14.540;2022-12-20T07:49:27;100771.61;;;3.26;100.00
68077;BME280;54866;53.458;14.540;2022-12-20T07:51:59;100768.44;;;3.27;100.00
68077;BME280;54866;53.458;14.540;2022-12-20T07:54:34;100762.77;;;3.28;100.00
68077;BME280;54866;53.458;14.540;2022-12-20T07:57:08;100761.20;;;3.33;100.00
68077;BME280;54866;53.458;14.540;2022-12-20T07:59:43;100753.59;;;3.35;100.00
68077;BME280;54866;53.458;14.540;2022-12-20T08:02:17;100749.47;;;3.38;100.00
68077;BME280;54866;53.458;14.540;2022-12-20T08:04:48;100758.73;;;3.41;100.00
68077;BME280;54866;53.458;14.540;2022-12-20T08:07:19;100758.88;;;3.45;100.00
68077;BME280;54866;53.458;14.540;2022-12-20T08:09:49;100766.29;;;3.47;100.00
68077;BME280;54866;53.458;14.540;2022-12-20T08:12:19;100777.25;;;3.51;100.00
68077;BME280;54866;53.458;14.540;2022-12-20T08:14:49;100782.09;;;3.51;100.00
68077;BME280;54866;53.458;14.540;2022-12-20T08:17:21;100775.34;;;3.50;99.89
68077;BME280;54866;53.458;14.540;2022-12-20T08:19:51;100778.06;;;3.52;99.82
68077;BME280;54866;53.458;14.540;2022-12-20T08:22:21;100781.91;;;3.52;99.80
68077;BME280;54866;53.458;14.540;2022-12-20T08:24:53;100778.64;;;3.51;99.91
68077;BME280;54866;53.458;14.540;2022-12-20T08:27:23;100777.71;;;3.52;99.80
68077;BME280;54866;53.458;14.540;2022-12-20T08:29:53;100777.62;;;3.53;99.75
68077;BME280;54866;53.458;14.540;2022-12-20T08:32:22;100776.93;;;3.57;99.16
68077;BME280;54866;53.458;14.540;2022-12-20T08:34:52;100783.85;;;3.61;98.89
68077;BME280;54866;53.458;14.540;2022-12-20T08:37:22;100779.98;;;3.66;98.94
68077;BME280;54866;53.458;14.540;2022-12-20T08:39:52;100783.70;;;3.69;98.72
68077;BME280;54866;53.458;14.540;2022-12-20T08:42:22;100787.84;;;3.70;98.78
68077;BME280;54866;53.458;14.540;2022-12-20T08:44:51;100787.75;;;3.68;98.59
68077;BME280;54866;53.458;14.540;2022-12-20T08:47:21;100784.23;;;3.65;98.36
68077;BME280;54866;53.458;14.540;2022-12-20T08:49:51;100782.89;;;3.64;98.43
68077;BME280;54866;53.458;14.540;2022-12-20T08:52:21;100789.07;;;3.61;98.47
68077;BME280;54866;53.458;14.540;2022-12-20T08:54:50;100787.55;;;3.61;98.59
68077;BME280;54866;53.458;14.540;2022-12-20T08:57:20;100781.41;;;3.58;98.50
68077;BME280;54866;53.458;14.540;2022-12-20T08:59:50;100780.58;;;3.57;98.40
68077;BME280;54866;53.458;14.540;2022-12-20T09:02:20;100779.08;;;3.56;98.52
68077;BME280;54866;53.458;14.540;2022-12-20T09:04:49;100782.38;;;3.56;98.72
68077;BME280;54866;53.458;14.540;2022-12-20T09:07:19;100778.55;;;3.56;98.88
68077;BME280;54866;53.458;14.540;2022-12-20T09:09:49;100780.98;;;3.56;99.05
68077;BME280;54866;53.458;14.540;2022-12-20T09:12:18;100777.74;;;3.55;99.25
68077;BME280;54866;53.458;14.540;2022-12-20T09:14:48;100775.86;;;3.54;99.54
68077;BME280;54866;53.458;14.540;2022-12-20T09:17:18;100776.16;;;3.52;99.79
68077;BME280;54866;53.458;14.540;2022-12-20T09:19:49;100774.80;;;3.51;99.97
68077;BME280;54866;53.458;14.540;2022-12-20T09:22:18;100770.85;;;3.50;100.00
68077;BME280;54866;53.458;14.540;2022-12-20T09:24:48;100768.95;;;3.49;100.00
68077;BME280;54866;53.458;14.540;2022-12-20T09:27:17;100769.47;;;3.49;100.00
68077;BME280;54866;53.458;14.540;2022-12-20T09:29:47;100757.58;;;3.47;100.00
68077;BME280;54866;53.458;14.540;2022-12-20T09:32:16;100764.75;;;3.50;100.00
68077;BME280;54866;53.458;14.540;2022-12-20T09:34:46;100757.33;;;3.52;100.00
68077;BME280;54866;53.458;14.540;2022-12-20T09:37:16;100751.52;;;3.54;100.00
68077;BME280;54866;53.458;14.540;2022-12-20T09:39:47;100754.20;;;3.55;100.00
68077;BME280;54866;53.458;14.540;2022-12-20T09:42:17;100754.48;;;3.57;100.00
68077;BME280;54866;53.458;14.540;2022-12-20T09:44:50;100753.83;;;3.59;100.00
68077;BME280;54866;53.458;14.540;2022-12-20T09:47:22;100749.02;;;3.61;100.00
68077;BME280;54866;53.458;14.540;2022-12-20T09:49:55;100745.13;;;3.62;100.00
68077;BME280;54866;53.458;14.540;2022-12-20T09:52:33;100742.08;;;3.65;100.00
68077;BME280;54866;53.458;14.540;2022-12-20T09:55:18;100747.43;;;3.69;100.00
68077;BME280;54866;53.458;14.540;2022-12-20T09:58:01;100750.94;;;3.72;100.00
68077;BME280;54866;53.458;14.540;2022-12-20T10:00:41;100745.95;;;3.74;100.00
68077;BME280;54866;53.458;14.540;2022-12-20T10:03:21;100748.00;;;3.75;100.00
68077;BME280;54866;53.458;14.540;2022-12-20T10:05:53;100740.49;;;3.75;100.00
68077;BME280;54866;53.458;14.540;2022-12-20T10:08:43;100732.30;;;3.76;100.00
68077;BME280;54866;53.458;14.540;2022-12-20T10:11:28;100722.71;;;3.76;100.00
68077;BME280;54866;53.458;14.540;2022-12-20T10:14:11;100724.67;;;3.78;100.00
68077;BME280;54866;53.458;14.540;2022-12-20T10:16:47;100721.94;;;3.81;100.00
68077;BME280;54866;53.458;14.540;2022-12-20T10:19:42;100719.70;;;3.84;100.00
68077;BME280;54866;53.458;14.540;2022-12-20T10:22:17;100721.58;;;3.88;100.00
68077;BME280;54866;53.458;14.540;2022-12-20T10:24:55;100718.27;;;3.91;100.00
68077;BME280;54866;53.458;14.540;2022-12-20T10:27:27;100711.05;;;3.93;100.00
68077;BME280;54866;53.458;14.540;2022-12-20T10:29:57;100705.41;;;3.94;100.00
68077;BME280;54866;53.458;14.540;2022-12-20T10:32:27;100701.53;;;3.94;100.00
68077;BME280;54866;53.458;14.540;2022-12-20T10:35:11;100697.64;;;3.96;100.00
68077;BME280;54866;53.458;14.540;2022-12-20T10:37:57;100698.40;;;3.98;100.00
68077;BME280;54866;53.458;14.540;2022-12-20T10:40:30;100696.25;;;4.00;100.00
68077;BME280;54866;53.458;14.540;2022-12-20T10:43:00;100684.23;;;4.00;100.00
68077;BME280;54866;53.458;14.540;2022-12-20T10:45:36;100682.73;;;4.01;100.00
68077;BME280;54866;53.458;14.540;2022-12-20T10:48:27;100687.52;;;4.04;100.00
68077;BME280;54866;53.458;14.540;2022-12-20T10:50:59;100692.02;;;4.07;100.00
68077;BME280;54866;53.458;14.540;2022-12-20T10:53:30;100692.15;;;4.08;100.00
68077;BME280;54866;53.458;14.540;2022-12-20T10:56:15;100698.92;;;4.12;100.00
68077;BME280;54866;53.458;14.540;2022-12-20T10:58:55;100705.39;;;4.15;100.00
68077;BME280;54866;53.458;14.540;2022-12-20T11:01:28;100703.39;;;4.16;100.00
68077;BME280;54866;53.458;14.540;2022-12-20T11:04:01;100697.95;;;4.17;100.00
68077;BME280;54866;53.458;14.540;2022-12-20T11:06:42;100689.98;;;4.19;100.00
68077;BME280;54866;53.458;14.540;2022-12-20T11:09:28;100680.55;;;4.23;100.00
68077;BME280;54866;53.458;14.540;2022-12-20T11:12:06;100672.28;;;4.28;100.00
68077;BME280;54866;53.458;14.540;2022-12-20T11:14:42;100664.23;;;4.32;100.00
68077;BME280;54866;53.458;14.540;2022-12-20T11:17:23;100655.10;;;4.36;100.00
68077;BME280;54866;53.458;14.540;2022-12-20T11:20:03;100647.98;;;4.42;100.00
68077;BME280;54866;53.458;14.540;2022-12-20T11:22:45;100640.70;;;4.47;100.00
68077;BME280;54866;53.458;14.540;2022-12-20T11:25:35;100634.25;;;4.54;100.00
68077;BME280;54866;53.458;14.540;2022-12-20T11:28:31;100630.49;;;4.59;100.00
68077;BME280;54866;53.458;14.540;2022-12-20T11:31:13;100627.44;;;4.64;100.00
68077;BME280;54866;53.458;14.540;2022-12-20T11:34:02;100628.49;;;4.67;100.00
68077;BME280;54866;53.458;14.540;2022-12-20T11:36:51;100622.99;;;4.69;100.00
68077;BME280;54866;53.458;14.540;2022-12-20T11:39:31;100624.71;;;4.72;100.00
68077;BME280;54866;53.458;14.540;2022-12-20T11:42:07;100633.75;;;4.76;100.00
68077;BME280;54866;53.458;14.540;2022-12-20T11:44:51;100627.52;;;4.78;100.00
68077;BME280;54866;53.458;14.540;2022-12-20T11:47:37;100626.73;;;4.80;100.00
68077;BME280;54866;53.458;14.540;2022-12-20T11:50:24;100624.20;;;4.81;100.00
68077;BME280;54866;53.458;14.540;2022-12-20T11:53:03;100632.92;;;4.84;100.00
68077;BME280;54866;53.458;14.540;2022-12-20T11:55:35;100630.04;;;4.87;100.00
68077;BME280;54866;53.458;14.540;2022-12-20T11:58:14;100615.10;;;4.91;100.00
68077;BME280;54866;53.458;14.540;2022-12-20T12:00:50;100603.99;;;4.96;100.00
68077;BME280;54866;53.458;14.540;2022-12-20T12:03:27;100595.92;;;5.03;100.00
68077;BME280;54866;53.458;14.540;2022-12-20T12:06:01;100590.79;;;5.10;100.00
68077;BME280;54866;53.458;14.540;2022-12-20T12:08:40;100585.27;;;5.18;100.00
68077;BME280;54866;53.458;14.540;2022-12-20T12:11:18;100582.77;;;5.23;100.00
68077;BME280;54866;53.458;14.540;2022-12-20T12:13:50;100577.48;;;5.26;100.00
68077;BME280;54866;53.458;14.540;2022-12-20T12:16:24;100577.07;;;5.30;100.00
68077;BME280;54866;53.458;14.540;2022-12-20T12:18:58;100569.95;;;5.35;100.00
68077;BME280;54866;53.458;14.540;2022-12-20T12:21:34;100571.69;;;5.42;100.00
68077;BME280;54866;53.458;14.540;2022-12-20T12:24:11;100578.84;;;5.45;100.00
68077;BME280;54866;53.458;14.540;2022-12-20T12:26:46;100582.95;;;5.49;100.00
68077;BME280;54866;53.458;14.540;2022-12-20T12:29:19;100582.86;;;5.51;100.00
68077;BME280;54866;53.458;14.540;2022-12-20T12:31:52;100569.23;;;5.51;100.00
68077;BME280;54866;53.458;14.540;2022-12-20T12:34:34;100571.95;;;5.52;100.00
68077;BME280;54866;53.458;14.540;2022-12-20T12:37:31;100578.55;;;5.50;100.00
68077;BME280;54866;53.458;14.540;2022-12-20T12:40:15;100576.73;;;5.48;100.00
68077;BME280;54866;53.458;14.540;2022-12-20T12:46:07;100567.76;;;5.46;100.00
68077;BME280;54866;53.458;14.540;2022-12-20T12:48:41;100574.46;;;5.45;100.00
68077;BME280;54866;53.458;14.540;2022-12-20T12:51:14;100575.98;;;5.46;100.00
68077;BME280;54866;53.458;14.540;2022-12-20T12:53:52;100569.70;;;5.46;100.00
68077;BME280;54866;53.458;14.540;2022-12-20T12:56:39;100571.41;;;5.46;100.00
68077;BME280;54866;53.458;14.540;2022-12-20T13:02:33;100570.52;;;5.44;100.00
68077;BME280;54866;53.458;14.540;2022-12-20T13:05:30;100576.08;;;5.44;100.00
68077;BME280;54866;53.458;14.540;2022-12-20T13:08:01;100577.35;;;5.43;100.00
68077;BME280;54866;53.458;14.540;2022-12-20T13:13:34;100554.83;;;5.40;100.00
68077;BME280;54866;53.458;14.540;2022-12-20T13:16:25;100557.73;;;5.38;100.00
68077;BME280;54866;53.458;14.540;2022-12-20T13:19:10;100556.78;;;5.36;100.00
68077;BME280;54866;53.458;14.540;2022-12-20T13:21:41;100544.61;;;5.35;100.00
68077;BME280;54866;53.458;14.540;2022-12-20T13:27:23;100520.82;;;5.33;100.00